KERV/ERV METAR and TAF weather

Enter ICAO airport designator
Station Type Date Time Source
KERV METAR 2021/09/27 06:15 UTC NOAA

KERV 270615Z AUTO 00000KT 10SM CLR 16/11 A3006 RMK AO2 T01630111


Station Type Date Time Source
KERV Decoded METAR 2021/09/27 06:15 UTC NOAA

Kerrville, Kerrville Municipal Airport/Louis Schreiner Field, TX, United States (KERV) 29-58N 099-05W
Sep 27, 2021 - 02:15 AM EDT / 2021.09.27 0615 UTC
Wind: Calm:0
Visibility: 10 mile(s):0
Sky conditions: clear
Temperature: 61.3 F (16.3 C)
Dew Point: 52.0 F (11.1 C)
Relative Humidity: 71%
Pressure (altimeter): 30.06 in. Hg (1017 hPa)
ob: KERV 270615Z AUTO 00000KT 10SM CLR 16/11 A3006 RMK AO2 T01630111
cycle: 6

Station Type Date Time Source
KERV TAF UTC NOAA

Error!

Example: see airport list